createdAt,value
2024-01-24T00:00:00.431Z,9.66
2024-01-24T00:00:10.914Z,9.67
2024-01-24T00:00:21.385Z,9.67
2024-01-24T00:00:31.936Z,9.69
2024-01-24T00:00:42.262Z,9.67
2024-01-24T00:00:52.618Z,9.69
2024-01-24T00:01:02.976Z,9.66
2024-01-24T00:01:13.314Z,9.69
2024-01-24T00:01:23.548Z,9.67
2024-01-24T00:01:34.022Z,9.66
2024-01-24T00:01:44.233Z,9.69
2024-01-24T00:01:54.683Z,9.66
2024-01-24T00:02:05.142Z,9.66
2024-01-24T00:02:15.603Z,9.69
2024-01-24T00:02:26.065Z,9.69
2024-01-24T00:02:36.518Z,9.67
2024-01-24T00:02:49.509Z,9.69
2024-01-24T00:02:57.510Z,9.69
2024-01-24T00:03:07.814Z,9.70
2024-01-24T00:03:18.152Z,9.70
2024-01-24T00:03:28.494Z,9.70
2024-01-24T00:03:38.738Z,9.69
2024-01-24T00:03:49.081Z,9.70
2024-01-24T00:03:59.454Z,9.72
2024-01-24T00:04:09.858Z,9.72
2024-01-24T00:04:20.183Z,9.70
2024-01-24T00:04:30.467Z,9.72
2024-01-24T00:04:40.738Z,9.72
2024-01-24T00:04:51.249Z,9.72
2024-01-24T00:05:01.481Z,9.72
2024-01-24T00:05:11.988Z,9.73
2024-01-24T00:05:22.224Z,9.72
2024-01-24T00:05:32.743Z,9.73
2024-01-24T00:05:42.992Z,9.73
2024-01-24T00:05:53.457Z,9.73
2024-01-24T00:06:03.912Z,9.73
2024-01-24T00:06:14.297Z,9.74
2024-01-24T00:06:24.589Z,9.73
2024-01-24T00:06:35.058Z,9.74
2024-01-24T00:06:45.349Z,9.74
2024-01-24T00:06:55.567Z,9.73
2024-01-24T00:07:06.012Z,9.73
2024-01-24T00:07:16.478Z,9.74
2024-01-24T00:07:26.947Z,9.73
2024-01-24T00:07:37.389Z,9.76
2024-01-24T00:07:47.844Z,9.76
2024-01-24T00:07:58.298Z,9.77
2024-01-24T00:08:08.760Z,9.77
2024-01-24T00:08:19.223Z,9.76
2024-01-24T00:08:29.676Z,9.77
2024-01-24T00:08:40.139Z,9.77
2024-01-24T00:08:50.592Z,9.80
2024-01-24T00:09:01.065Z,9.80
2024-01-24T00:09:11.555Z,9.76
2024-01-24T00:09:21.787Z,9.81
2024-01-24T00:09:32.078Z,9.82
2024-01-24T00:09:42.284Z,9.81
2024-01-24T00:09:52.540Z,9.80
2024-01-24T00:10:02.750Z,9.81
2024-01-24T00:10:13.199Z,9.82
2024-01-24T00:10:23.668Z,9.84
2024-01-24T00:10:34.117Z,9.84
2024-01-24T00:10:44.578Z,9.82
2024-01-24T00:10:55.040Z,9.84
2024-01-24T00:11:05.526Z,9.87
2024-01-24T00:11:15.970Z,9.87
2024-01-24T00:11:26.413Z,9.88
2024-01-24T00:11:36.759Z,9.88
2024-01-24T00:11:46.987Z,9.90
2024-01-24T00:11:57.450Z,9.90
2024-01-24T00:12:07.703Z,9.91
2024-01-24T00:12:18.204Z,9.90
2024-01-24T00:12:28.472Z,9.90
2024-01-24T00:12:38.714Z,9.91
2024-01-24T00:12:49.185Z,9.91
2024-01-24T00:12:59.654Z,9.91
2024-01-24T00:13:09.880Z,9.90
2024-01-24T00:13:20.361Z,9.90
2024-01-24T00:13:30.804Z,9.91
2024-01-24T00:13:41.289Z,9.91
2024-01-24T00:13:51.732Z,9.91
2024-01-24T00:14:02.184Z,9.92
2024-01-24T00:14:12.669Z,9.91
2024-01-24T00:14:22.872Z,9.92
2024-01-24T00:14:33.346Z,9.90
2024-01-24T00:14:43.565Z,9.92
2024-01-24T00:14:54.026Z,9.92
2024-01-24T00:15:04.484Z,9.91
2024-01-24T00:15:14.987Z,9.91
2024-01-24T00:15:25.220Z,9.94
2024-01-24T00:15:35.503Z,9.92
2024-01-24T00:15:45.896Z,9.92
2024-01-24T00:15:56.177Z,9.92
2024-01-24T00:16:06.610Z,9.92
2024-01-24T00:16:17.075Z,9.91
2024-01-24T00:16:29.678Z,9.92
2024-01-24T00:16:37.901Z,9.92
2024-01-24T00:16:48.373Z,9.91
2024-01-24T00:16:58.817Z,9.92
2024-01-24T00:17:09.275Z,9.92
2024-01-24T00:17:19.741Z,9.94
2024-01-24T00:17:30.220Z,9.94
2024-01-24T00:17:40.693Z,9.92
2024-01-24T00:17:51.188Z,9.91
2024-01-24T00:18:01.487Z,9.92
2024-01-24T00:18:11.818Z,9.91
2024-01-24T00:18:22.271Z,9.92
2024-01-24T00:18:32.561Z,9.92
2024-01-24T00:18:42.837Z,9.92
2024-01-24T00:18:53.135Z,9.94
2024-01-24T00:19:03.380Z,9.92
2024-01-24T00:19:13.714Z,9.92
2024-01-24T00:19:23.991Z,9.92
2024-01-24T00:19:34.307Z,9.94
2024-01-24T00:19:44.631Z,9.92
2024-01-24T00:19:54.920Z,9.92
2024-01-24T00:20:05.372Z,9.94
2024-01-24T00:20:15.862Z,9.91
2024-01-24T00:20:26.289Z,9.94
2024-01-24T00:20:36.753Z,9.92
2024-01-24T00:20:47.210Z,9.91
2024-01-24T00:20:57.683Z,9.94
2024-01-24T00:21:08.141Z,9.92
2024-01-24T00:21:18.607Z,9.94
2024-01-24T00:21:29.124Z,9.94
2024-01-24T00:21:39.405Z,9.91
2024-01-24T00:21:49.925Z,9.91
2024-01-24T00:22:00.148Z,9.94
2024-01-24T00:22:10.608Z,9.91
2024-01-24T00:22:20.861Z,9.94
2024-01-24T00:22:31.320Z,9.92
2024-01-24T00:22:41.779Z,9.94
2024-01-24T00:22:52.248Z,9.92
2024-01-24T00:23:02.710Z,9.92
2024-01-24T00:23:13.161Z,9.92
2024-01-24T00:23:23.617Z,9.92
2024-01-24T00:23:34.092Z,9.92
2024-01-24T00:23:44.317Z,9.91
2024-01-24T00:23:54.792Z,9.92
2024-01-24T00:24:05.011Z,9.92
2024-01-24T00:24:15.570Z,9.92
2024-01-24T00:24:25.792Z,9.92
2024-01-24T00:24:36.266Z,9.94
2024-01-24T00:24:46.751Z,9.90
2024-01-24T00:24:56.966Z,9.94
2024-01-24T00:25:07.409Z,9.94
2024-01-24T00:25:17.866Z,9.92
2024-01-24T00:25:28.325Z,9.91
2024-01-24T00:25:38.794Z,9.91
2024-01-24T00:25:49.241Z,9.94
2024-01-24T00:25:59.702Z,9.91
2024-01-24T00:26:10.203Z,9.92
2024-01-24T00:26:20.407Z,9.92
2024-01-24T00:26:30.863Z,9.94
2024-01-24T00:26:41.328Z,9.92
2024-01-24T00:26:51.791Z,9.92
2024-01-24T00:27:02.248Z,9.92
2024-01-24T00:27:12.749Z,9.92
2024-01-24T00:27:23.210Z,9.91
2024-01-24T00:27:33.469Z,9.92
2024-01-24T00:27:43.714Z,9.92
2024-01-24T00:27:53.925Z,9.92
2024-01-24T00:28:04.397Z,9.95
2024-01-24T00:28:14.622Z,9.94
2024-01-24T00:28:24.857Z,9.95
2024-01-24T00:28:35.342Z,9.94
2024-01-24T00:28:45.558Z,9.94
2024-01-24T00:28:56.011Z,9.94
2024-01-24T00:29:06.471Z,9.94
2024-01-24T00:29:16.928Z,9.94
2024-01-24T00:29:27.389Z,9.95
2024-01-24T00:29:37.856Z,9.94
2024-01-24T00:29:48.354Z,9.94
2024-01-24T00:29:58.557Z,9.95
2024-01-24T00:30:09.084Z,9.95
2024-01-24T00:30:19.317Z,9.95
2024-01-24T00:30:29.594Z,9.94
2024-01-24T00:30:40.060Z,9.99
2024-01-24T00:30:50.282Z,9.97
2024-01-24T00:31:00.714Z,9.95
2024-01-24T00:31:11.171Z,9.95
2024-01-24T00:31:21.627Z,9.97
2024-01-24T00:31:32.096Z,9.99
2024-01-24T00:31:42.604Z,9.97
2024-01-24T00:31:52.824Z,9.97
2024-01-24T00:32:03.280Z,9.99
2024-01-24T00:32:13.751Z,9.99
2024-01-24T00:32:24.245Z,9.97
2024-01-24T00:32:34.574Z,9.99
2024-01-24T00:32:44.794Z,9.97
2024-01-24T00:32:55.083Z,9.99
2024-01-24T00:33:05.409Z,9.97
2024-01-24T00:33:15.682Z,9.99
2024-01-24T00:33:25.918Z,10.00
2024-01-24T00:33:36.441Z,9.97
2024-01-24T00:33:46.818Z,10.00
2024-01-24T00:33:56.988Z,9.99
2024-01-24T00:34:07.454Z,10.00
2024-01-24T00:34:17.734Z,9.99
2024-01-24T00:34:28.048Z,10.00
2024-01-24T00:34:38.305Z,10.02
2024-01-24T00:34:48.549Z,10.02
2024-01-24T00:34:58.771Z,10.00
2024-01-24T00:35:08.997Z,9.99
2024-01-24T00:35:19.253Z,9.99
2024-01-24T00:35:29.487Z,10.00
2024-01-24T00:35:39.725Z,10.00
2024-01-24T00:35:49.971Z,10.00
2024-01-24T00:36:00.219Z,10.02
2024-01-24T00:36:10.473Z,10.00
2024-01-24T00:36:20.768Z,10.00
2024-01-24T00:36:31.024Z,10.00
2024-01-24T00:36:41.247Z,10.02
2024-01-24T00:36:51.538Z,10.02
2024-01-24T00:37:01.801Z,10.00
2024-01-24T00:37:12.042Z,10.02
2024-01-24T00:37:22.299Z,10.02
2024-01-24T00:37:32.558Z,10.02
2024-01-24T00:37:42.804Z,10.02
2024-01-24T00:37:53.050Z,10.03
2024-01-24T00:38:03.300Z,10.03
2024-01-24T00:38:13.548Z,10.03
2024-01-24T00:38:23.791Z,10.03
2024-01-24T00:38:34.039Z,10.03
2024-01-24T00:38:44.296Z,10.05
2024-01-24T00:38:54.528Z,10.06
2024-01-24T00:39:04.803Z,10.03
2024-01-24T00:39:15.037Z,10.06
2024-01-24T00:39:25.305Z,10.06
2024-01-24T00:39:35.596Z,10.05
2024-01-24T00:39:45.919Z,10.09
2024-01-24T00:39:56.153Z,10.05
2024-01-24T00:40:06.382Z,10.06
2024-01-24T00:40:16.628Z,10.06
2024-01-24T00:40:26.866Z,10.07
2024-01-24T00:40:37.133Z,10.09
2024-01-24T00:40:47.356Z,10.07
2024-01-24T00:40:57.612Z,10.07
2024-01-24T00:41:07.860Z,10.09
2024-01-24T00:41:18.127Z,10.07
2024-01-24T00:41:28.361Z,10.09
2024-01-24T00:41:38.597Z,10.07
2024-01-24T00:41:48.859Z,10.09
2024-01-24T00:41:59.106Z,10.10
2024-01-24T00:42:09.394Z,10.10
2024-01-24T00:42:19.639Z,10.10
2024-01-24T00:42:30.019Z,10.12
2024-01-24T00:42:40.228Z,10.12
2024-01-24T00:42:50.507Z,10.10
2024-01-24T00:43:00.753Z,10.12
2024-01-24T00:43:11.003Z,10.12
2024-01-24T00:43:21.266Z,10.13
2024-01-24T00:43:31.501Z,10.12
2024-01-24T00:43:41.748Z,10.13
2024-01-24T00:43:52.007Z,10.13
2024-01-24T00:44:02.246Z,10.13
2024-01-24T00:44:12.495Z,10.13
2024-01-24T00:44:22.744Z,10.12
2024-01-24T00:44:32.986Z,10.13
2024-01-24T00:44:43.234Z,10.12
2024-01-24T00:44:53.477Z,10.15
2024-01-24T00:45:03.728Z,10.15
2024-01-24T00:45:13.992Z,10.13
2024-01-24T00:45:24.241Z,10.12
2024-01-24T00:45:34.514Z,10.13
2024-01-24T00:45:44.799Z,10.13
2024-01-24T00:45:55.124Z,10.15
2024-01-24T00:46:05.371Z,10.13
2024-01-24T00:46:15.603Z,10.13
2024-01-24T00:46:25.846Z,10.13
2024-01-24T00:46:36.104Z,10.12
2024-01-24T00:46:46.353Z,10.13
2024-01-24T00:46:56.623Z,10.15
2024-01-24T00:47:06.886Z,10.15
2024-01-24T00:47:17.130Z,10.15
2024-01-24T00:47:27.396Z,10.15
2024-01-24T00:47:37.654Z,10.15
2024-01-24T00:47:47.948Z,10.15
2024-01-24T00:47:58.283Z,10.13
2024-01-24T00:48:08.615Z,10.15
2024-01-24T00:48:18.995Z,10.17
2024-01-24T00:48:29.289Z,10.17
2024-01-24T00:48:39.590Z,10.17
2024-01-24T00:48:49.945Z,10.17
2024-01-24T00:49:00.456Z,10.17
2024-01-24T00:49:10.546Z,10.17
2024-01-24T00:49:21.061Z,10.17
2024-01-24T00:49:31.212Z,10.18
2024-01-24T00:49:41.497Z,10.18
2024-01-24T00:49:51.736Z,10.18
2024-01-24T00:50:01.994Z,10.18
2024-01-24T00:50:12.237Z,10.17
2024-01-24T00:50:22.481Z,10.18
2024-01-24T00:50:32.797Z,10.17
2024-01-24T00:50:43.011Z,10.21
2024-01-24T00:50:53.273Z,10.20
2024-01-24T00:51:03.507Z,10.18
2024-01-24T00:51:13.793Z,10.20
2024-01-24T00:51:24.053Z,10.18
2024-01-24T00:51:34.296Z,10.20
2024-01-24T00:51:44.552Z,10.20
2024-01-24T00:51:54.806Z,10.23
2024-01-24T00:52:05.061Z,10.21
2024-01-24T00:52:15.288Z,10.20
2024-01-24T00:52:25.542Z,10.21
2024-01-24T00:52:35.793Z,10.21
2024-01-24T00:52:46.031Z,10.21
2024-01-24T00:52:56.281Z,10.21
2024-01-24T00:53:06.541Z,10.21
2024-01-24T00:53:16.782Z,10.24
2024-01-24T00:53:27.020Z,10.23
2024-01-24T00:53:37.264Z,10.23
2024-01-24T00:53:47.515Z,10.23
2024-01-24T00:53:57.768Z,10.25
2024-01-24T00:54:08.002Z,10.24
2024-01-24T00:54:18.290Z,10.24
2024-01-24T00:54:28.548Z,10.21
2024-01-24T00:54:38.775Z,10.23
2024-01-24T00:54:49.106Z,10.24
2024-01-24T00:54:59.321Z,10.24
2024-01-24T00:55:09.593Z,10.24
2024-01-24T00:55:19.816Z,10.24
2024-01-24T00:55:30.063Z,10.25
2024-01-24T00:55:40.312Z,10.24
2024-01-24T00:55:50.571Z,10.25
2024-01-24T00:56:00.815Z,10.27
2024-01-24T00:56:11.072Z,10.25
2024-01-24T00:56:21.486Z,10.24
2024-01-24T00:56:31.746Z,10.27
2024-01-24T00:56:41.998Z,10.25
2024-01-24T00:56:52.243Z,10.27
2024-01-24T00:57:02.505Z,10.25
2024-01-24T00:57:12.768Z,10.25
2024-01-24T00:57:23.026Z,10.27
2024-01-24T00:57:33.339Z,10.27
2024-01-24T00:57:43.613Z,10.27
2024-01-24T00:57:53.854Z,10.27
2024-01-24T00:58:04.101Z,10.25
2024-01-24T00:58:14.350Z,10.27
2024-01-24T00:58:24.600Z,10.25
2024-01-24T00:58:34.842Z,10.27
2024-01-24T00:58:45.092Z,10.28
2024-01-24T00:58:55.346Z,10.27
2024-01-24T00:59:05.585Z,10.30
2024-01-24T00:59:15.829Z,10.27
2024-01-24T00:59:26.086Z,10.30
2024-01-24T00:59:36.340Z,10.27
2024-01-24T00:59:46.579Z,10.28
2024-01-24T00:59:56.828Z,10.28
2024-01-24T01:00:07.090Z,10.27
2024-01-24T01:00:17.422Z,10.28
2024-01-24T01:00:27.728Z,10.28
2024-01-24T01:00:38.062Z,10.27
2024-01-24T01:00:48.380Z,10.28
2024-01-24T01:00:58.880Z,10.30
2024-01-24T01:01:09.010Z,10.31
2024-01-24T01:01:19.309Z,10.31
2024-01-24T01:01:29.541Z,10.31
2024-01-24T01:01:39.823Z,10.30
2024-01-24T01:01:50.052Z,10.33
2024-01-24T01:02:00.297Z,10.33
2024-01-24T01:02:10.552Z,10.33
2024-01-24T01:02:20.795Z,10.33
2024-01-24T01:02:31.060Z,10.31
2024-01-24T01:02:41.308Z,10.34
2024-01-24T01:02:51.552Z,10.33
2024-01-24T01:03:01.802Z,10.33
2024-01-24T01:03:12.119Z,10.33
2024-01-24T01:03:22.478Z,10.33
2024-01-24T01:03:32.841Z,10.34
2024-01-24T01:03:43.206Z,10.38
2024-01-24T01:03:53.580Z,10.34
2024-01-24T01:04:04.026Z,10.34
2024-01-24T01:04:14.318Z,10.38
2024-01-24T01:04:24.641Z,10.36
2024-01-24T01:04:34.873Z,10.36
2024-01-24T01:04:45.111Z,10.36
2024-01-24T01:04:55.388Z,10.38
2024-01-24T01:05:05.720Z,10.38
2024-01-24T01:05:16.003Z,10.36
2024-01-24T01:05:26.301Z,10.38
2024-01-24T01:05:36.613Z,10.39
2024-01-24T01:05:46.943Z,10.38
2024-01-24T01:05:57.171Z,10.38
2024-01-24T01:06:07.428Z,10.38
2024-01-24T01:06:17.690Z,10.38
2024-01-24T01:06:27.936Z,10.39
2024-01-24T01:06:38.201Z,10.41
2024-01-24T01:06:48.504Z,10.39
2024-01-24T01:06:58.781Z,10.41
2024-01-24T01:07:09.031Z,10.42
2024-01-24T01:07:19.292Z,10.42
2024-01-24T01:07:29.542Z,10.42
2024-01-24T01:07:39.791Z,10.42
2024-01-24T01:07:50.040Z,10.42
2024-01-24T01:08:00.288Z,10.42
2024-01-24T01:08:10.532Z,10.41
2024-01-24T01:08:20.795Z,10.39
2024-01-24T01:08:31.035Z,10.42
2024-01-24T01:08:41.276Z,10.41
2024-01-24T01:08:51.516Z,10.43
2024-01-24T01:09:01.767Z,10.43
2024-01-24T01:09:12.090Z,10.43
2024-01-24T01:09:22.401Z,10.45
2024-01-24T01:09:32.649Z,10.43
2024-01-24T01:09:42.924Z,10.43
2024-01-24T01:09:53.185Z,10.42
2024-01-24T01:10:03.442Z,10.45
2024-01-24T01:10:13.695Z,10.43
2024-01-24T01:10:23.948Z,10.45
2024-01-24T01:10:34.202Z,10.45
2024-01-24T01:10:44.435Z,10.43
2024-01-24T01:10:54.682Z,10.45
2024-01-24T01:11:04.931Z,10.42
2024-01-24T01:11:15.179Z,10.43
2024-01-24T01:11:25.449Z,10.46
2024-01-24T01:11:35.674Z,10.43
2024-01-24T01:11:45.924Z,10.45
2024-01-24T01:11:56.172Z,10.43
2024-01-24T01:12:06.429Z,10.45
2024-01-24T01:12:17.515Z,10.45
2024-01-24T01:12:27.041Z,10.45
2024-01-24T01:12:37.284Z,10.45
2024-01-24T01:12:47.597Z,10.43
2024-01-24T01:12:57.966Z,10.43
2024-01-24T01:13:08.290Z,10.43
2024-01-24T01:13:18.534Z,10.45
2024-01-24T01:13:28.789Z,10.43
2024-01-24T01:13:39.029Z,10.46
2024-01-24T01:13:49.288Z,10.43
2024-01-24T01:13:59.521Z,10.46
2024-01-24T01:14:09.774Z,10.43
2024-01-24T01:14:20.047Z,10.45
2024-01-24T01:14:30.277Z,10.46
2024-01-24T01:14:40.532Z,10.45
2024-01-24T01:14:50.796Z,10.46
2024-01-24T01:15:01.059Z,10.46
2024-01-24T01:15:11.333Z,10.46
2024-01-24T01:15:21.586Z,10.45
2024-01-24T01:15:31.828Z,10.46
2024-01-24T01:15:42.116Z,10.48
2024-01-24T01:15:52.388Z,10.45
2024-01-24T01:16:02.643Z,10.46
2024-01-24T01:16:12.877Z,10.46
2024-01-24T01:16:23.151Z,10.48
2024-01-24T01:16:33.370Z,10.48
2024-01-24T01:16:43.621Z,10.48
2024-01-24T01:16:53.864Z,10.46
2024-01-24T01:17:04.117Z,10.48
2024-01-24T01:17:14.362Z,10.48
2024-01-24T01:17:24.615Z,10.48
2024-01-24T01:17:34.890Z,10.46
2024-01-24T01:17:45.148Z,10.48
2024-01-24T01:17:55.426Z,10.46
2024-01-24T01:18:05.712Z,10.48
2024-01-24T01:18:15.990Z,10.46
2024-01-24T01:18:26.235Z,10.48
2024-01-24T01:18:36.529Z,10.48
2024-01-24T01:18:46.904Z,10.48
2024-01-24T01:18:57.248Z,10.48
2024-01-24T01:19:07.517Z,10.48
2024-01-24T01:19:17.963Z,10.49
2024-01-24T01:19:28.296Z,10.48
2024-01-24T01:19:38.516Z,10.51
2024-01-24T01:19:48.758Z,10.53
2024-01-24T01:19:59.004Z,10.49
2024-01-24T01:20:09.251Z,10.49
2024-01-24T01:20:19.496Z,10.51
2024-01-24T01:20:29.747Z,10.49
2024-01-24T01:20:39.993Z,10.51
2024-01-24T01:20:50.232Z,10.51
2024-01-24T01:21:00.490Z,10.51
2024-01-24T01:21:10.750Z,10.53
2024-01-24T01:21:21.002Z,10.53
2024-01-24T01:21:31.349Z,10.53
2024-01-24T01:21:41.855Z,10.53
2024-01-24T01:21:52.017Z,10.55
2024-01-24T01:22:02.403Z,10.51
2024-01-24T01:22:12.755Z,10.55
2024-01-24T01:22:23.299Z,10.55
2024-01-24T01:22:33.375Z,10.55
2024-01-24T01:22:43.636Z,10.55
2024-01-24T01:22:53.861Z,10.55
2024-01-24T01:23:04.099Z,10.57
2024-01-24T01:23:14.393Z,10.55
2024-01-24T01:23:24.593Z,10.57
2024-01-24T01:23:34.861Z,10.58
2024-01-24T01:23:45.103Z,10.57
2024-01-24T01:23:55.371Z,10.57
2024-01-24T01:24:05.633Z,10.58
2024-01-24T01:24:15.878Z,10.57
2024-01-24T01:24:26.193Z,10.61
2024-01-24T01:24:36.424Z,10.58
2024-01-24T01:24:46.751Z,10.59
2024-01-24T01:24:59.422Z,10.59
2024-01-24T01:25:07.423Z,10.61
2024-01-24T01:25:17.639Z,10.62
2024-01-24T01:25:27.911Z,10.61
2024-01-24T01:25:38.131Z,10.59
2024-01-24T01:25:48.379Z,10.59
2024-01-24T01:25:58.621Z,10.61
2024-01-24T01:26:08.864Z,10.59
2024-01-24T01:26:19.110Z,10.62
2024-01-24T01:26:29.384Z,10.61
2024-01-24T01:26:39.607Z,10.59
2024-01-24T01:26:49.864Z,10.62
2024-01-24T01:27:00.116Z,10.62
2024-01-24T01:27:10.401Z,10.62
2024-01-24T01:27:20.673Z,10.61
2024-01-24T01:27:30.951Z,10.61
2024-01-24T01:27:41.198Z,10.61
2024-01-24T01:27:51.425Z,10.62
2024-01-24T01:28:01.668Z,10.64
2024-01-24T01:28:11.983Z,10.62
2024-01-24T01:28:22.215Z,10.61
2024-01-24T01:28:32.482Z,10.62
2024-01-24T01:28:42.729Z,10.64
2024-01-24T01:28:52.995Z,10.62
2024-01-24T01:29:03.272Z,10.62
2024-01-24T01:29:13.491Z,10.65
2024-01-24T01:29:23.749Z,10.62
2024-01-24T01:29:33.994Z,10.64
2024-01-24T01:29:44.233Z,10.65
2024-01-24T01:29:54.478Z,10.64
2024-01-24T01:30:04.727Z,10.65
2024-01-24T01:30:15.022Z,10.62
2024-01-24T01:30:25.278Z,10.65
2024-01-24T01:30:35.540Z,10.64
2024-01-24T01:30:45.902Z,10.65
2024-01-24T01:30:56.170Z,10.65
2024-01-24T01:31:06.428Z,10.65
2024-01-24T01:31:16.653Z,10.65
2024-01-24T01:31:26.909Z,10.69
2024-01-24T01:31:37.156Z,10.65
2024-01-24T01:31:47.402Z,10.68
2024-01-24T01:31:57.658Z,10.67
2024-01-24T01:32:07.885Z,10.68
2024-01-24T01:32:18.226Z,10.67
2024-01-24T01:32:28.543Z,10.68
2024-01-24T01:32:38.815Z,10.68
2024-01-24T01:32:49.156Z,10.67
2024-01-24T01:32:59.485Z,10.69
2024-01-24T01:33:09.933Z,10.69
2024-01-24T01:33:20.267Z,10.68
2024-01-24T01:33:30.618Z,10.69
2024-01-24T01:33:40.921Z,10.71
2024-01-24T01:33:51.238Z,10.69
2024-01-24T01:34:01.579Z,10.69
2024-01-24T01:34:11.970Z,10.69
2024-01-24T01:34:22.352Z,10.69
2024-01-24T01:34:32.724Z,10.75
2024-01-24T01:34:43.109Z,10.72
2024-01-24T01:34:53.392Z,10.75
2024-01-24T01:35:03.637Z,10.71
2024-01-24T01:35:13.881Z,10.72
2024-01-24T01:35:24.129Z,10.71
2024-01-24T01:35:34.396Z,10.75
2024-01-24T01:35:44.625Z,10.72
2024-01-24T01:36:05.316Z,10.75
2024-01-24T01:36:14.342Z,10.72
2024-01-24T01:36:22.880Z,10.72
2024-01-24T01:36:26.897Z,10.75
2024-01-24T01:36:36.220Z,10.72
2024-01-24T01:36:46.441Z,10.76
2024-01-24T01:36:56.684Z,10.75
2024-01-24T01:37:07.038Z,10.75
2024-01-24T01:37:17.300Z,10.72
2024-01-24T01:37:27.552Z,10.75
2024-01-24T01:37:37.803Z,10.75
2024-01-24T01:37:48.070Z,10.75
2024-01-24T01:37:58.306Z,10.76
2024-01-24T01:38:08.555Z,10.75
2024-01-24T01:38:18.805Z,10.75
2024-01-24T01:38:29.047Z,10.75
2024-01-24T01:38:39.295Z,10.76
2024-01-24T01:38:49.548Z,10.75
2024-01-24T01:38:59.964Z,10.76
2024-01-24T01:39:10.286Z,10.72
2024-01-24T01:39:20.526Z,10.72
2024-01-24T01:39:30.933Z,10.75
2024-01-24T01:39:41.280Z,10.77
2024-01-24T01:39:51.609Z,10.75
2024-01-24T01:40:01.940Z,10.75
2024-01-24T01:40:12.211Z,10.75
2024-01-24T01:40:22.449Z,10.72
2024-01-24T01:40:32.698Z,10.75
2024-01-24T01:40:42.983Z,10.72
2024-01-24T01:40:53.274Z,10.75
2024-01-24T01:41:03.491Z,10.75
2024-01-24T01:41:13.737Z,10.76
2024-01-24T01:41:23.989Z,10.72
2024-01-24T01:41:34.252Z,10.76
2024-01-24T01:41:44.467Z,10.76
2024-01-24T01:41:54.725Z,10.76
2024-01-24T01:42:04.985Z,10.75
2024-01-24T01:42:15.283Z,10.75
2024-01-24T01:42:25.594Z,10.72
2024-01-24T01:42:35.881Z,10.75
2024-01-24T01:42:46.212Z,10.72
2024-01-24T01:42:56.549Z,10.72
2024-01-24T01:43:06.819Z,10.75
2024-01-24T01:43:17.064Z,10.75
2024-01-24T01:43:27.308Z,10.75
2024-01-24T01:43:37.558Z,10.75
2024-01-24T01:43:47.800Z,10.75
2024-01-24T01:43:58.041Z,10.75
2024-01-24T01:44:08.293Z,10.72
2024-01-24T01:44:18.534Z,10.76
2024-01-24T01:44:28.787Z,10.76
2024-01-24T01:44:39.033Z,10.75
2024-01-24T01:44:49.281Z,10.76
2024-01-24T01:44:59.543Z,10.75
2024-01-24T01:45:09.900Z,10.76
2024-01-24T01:45:20.183Z,10.76
2024-01-24T01:45:30.479Z,10.75
2024-01-24T01:45:40.728Z,10.72
2024-01-24T01:45:50.950Z,10.75
2024-01-24T01:46:01.199Z,10.75
2024-01-24T01:46:11.444Z,10.76
2024-01-24T01:46:21.686Z,10.76
2024-01-24T01:46:31.932Z,10.76
2024-01-24T01:46:42.195Z,10.75
2024-01-24T01:46:52.526Z,10.75
2024-01-24T01:47:02.792Z,10.75
2024-01-24T01:47:13.054Z,10.76
2024-01-24T01:47:23.299Z,10.76
2024-01-24T01:47:33.588Z,10.76
2024-01-24T01:47:43.862Z,10.76
2024-01-24T01:47:54.114Z,10.77
2024-01-24T01:48:04.468Z,10.76
2024-01-24T01:48:14.824Z,10.76
2024-01-24T01:48:25.291Z,10.80
2024-01-24T01:48:35.800Z,10.77
2024-01-24T01:48:45.937Z,10.76
2024-01-24T01:48:56.269Z,10.76
2024-01-24T01:49:06.617Z,10.77
2024-01-24T01:49:16.964Z,10.77
2024-01-24T01:49:27.352Z,10.77
2024-01-24T01:49:37.744Z,10.77
2024-01-24T01:49:48.156Z,10.76
2024-01-24T01:49:58.317Z,10.77
2024-01-24T01:50:08.621Z,10.79
2024-01-24T01:50:18.873Z,10.77
2024-01-24T01:50:29.113Z,10.79
2024-01-24T01:50:39.372Z,10.79
2024-01-24T01:50:52.516Z,10.79
2024-01-24T01:50:59.866Z,10.79
2024-01-24T01:51:10.142Z,10.77
2024-01-24T01:51:20.469Z,10.80
2024-01-24T01:51:30.831Z,10.79
2024-01-24T01:51:41.142Z,10.82
2024-01-24T01:51:51.464Z,10.79
2024-01-24T01:52:01.772Z,10.80
2024-01-24T01:52:11.985Z,10.83
2024-01-24T01:52:22.222Z,10.80
2024-01-24T01:52:32.469Z,10.80
2024-01-24T01:52:42.714Z,10.80
2024-01-24T01:52:52.976Z,10.82
2024-01-24T01:53:03.214Z,10.82
2024-01-24T01:53:13.454Z,10.82
2024-01-24T01:53:23.759Z,10.82
2024-01-24T01:53:33.977Z,10.83
2024-01-24T01:53:44.203Z,10.82
2024-01-24T01:53:54.447Z,10.80
2024-01-24T01:54:04.704Z,10.82
2024-01-24T01:54:14.959Z,10.82
2024-01-24T01:54:25.230Z,10.83
2024-01-24T01:54:35.592Z,10.83
2024-01-24T01:54:45.856Z,10.82
2024-01-24T01:54:56.113Z,10.83
2024-01-24T01:55:06.352Z,10.82
2024-01-24T01:55:16.666Z,10.83
2024-01-24T01:55:26.877Z,10.84
2024-01-24T01:55:37.134Z,10.83
2024-01-24T01:55:47.369Z,10.86
2024-01-24T01:55:57.637Z,10.86
2024-01-24T01:56:07.884Z,10.86
2024-01-24T01:56:18.143Z,10.83
2024-01-24T01:56:28.416Z,10.84
2024-01-24T01:56:38.692Z,10.86
2024-01-24T01:56:48.910Z,10.86
2024-01-24T01:56:59.153Z,10.84
2024-01-24T01:57:09.403Z,10.84
2024-01-24T01:57:19.677Z,10.84
2024-01-24T01:57:29.959Z,10.84
2024-01-24T01:57:40.218Z,10.86
2024-01-24T01:57:50.570Z,10.87
2024-01-24T01:58:00.904Z,10.86
2024-01-24T01:58:11.122Z,10.86
2024-01-24T01:58:21.370Z,10.86
2024-01-24T01:58:31.617Z,10.86
2024-01-24T01:58:41.871Z,10.87
2024-01-24T01:58:52.110Z,10.89
2024-01-24T01:59:02.369Z,10.86
2024-01-24T01:59:12.611Z,10.87
2024-01-24T01:59:22.855Z,10.86
2024-01-24T01:59:33.092Z,10.89
2024-01-24T01:59:43.339Z,10.87
2024-01-24T01:59:53.589Z,10.89
2024-01-24T02:00:03.889Z,10.87
2024-01-24T02:00:14.120Z,10.87
2024-01-24T02:00:24.404Z,10.89
2024-01-24T02:00:34.675Z,10.90
2024-01-24T02:00:44.955Z,10.90
2024-01-24T02:00:55.322Z,10.89
2024-01-24T02:01:05.731Z,10.89
2024-01-24T02:01:16.209Z,10.89
2024-01-24T02:01:26.309Z,10.87
2024-01-24T02:01:36.536Z,10.90
2024-01-24T02:01:46.847Z,10.90
2024-01-24T02:01:57.072Z,10.90
2024-01-24T02:02:07.312Z,10.90
2024-01-24T02:02:17.556Z,10.92
2024-01-24T02:02:27.809Z,10.92
2024-01-24T02:02:38.226Z,10.94
2024-01-24T02:02:48.331Z,10.94
2024-01-24T02:02:58.641Z,10.95
2024-01-24T02:03:08.978Z,10.95
2024-01-24T02:03:19.442Z,10.95
2024-01-24T02:03:29.759Z,10.97
2024-01-24T02:03:40.116Z,10.98
2024-01-24T02:03:50.477Z,10.98
2024-01-24T02:04:00.756Z,11.00
2024-01-24T02:04:11.029Z,11.00
2024-01-24T02:04:21.297Z,11.00
2024-01-24T02:04:31.537Z,11.00
2024-01-24T02:04:41.755Z,11.00
2024-01-24T02:04:52.006Z,11.01
2024-01-24T02:05:02.248Z,11.01
2024-01-24T02:05:12.510Z,11.01
2024-01-24T02:05:22.833Z,11.01
2024-01-24T02:05:34.117Z,11.02
2024-01-24T02:05:43.341Z,11.02
2024-01-24T02:05:53.641Z,11.01
2024-01-24T02:06:03.970Z,11.04
2024-01-24T02:06:14.345Z,11.02
2024-01-24T02:06:24.812Z,11.02
2024-01-24T02:06:35.141Z,11.02
2024-01-24T02:06:45.485Z,11.05
2024-01-24T02:06:55.811Z,11.04
2024-01-24T02:07:06.198Z,11.07
2024-01-24T02:07:16.616Z,11.04
2024-01-24T02:07:26.985Z,11.05
2024-01-24T02:07:37.320Z,11.05
2024-01-24T02:07:47.773Z,11.04
2024-01-24T02:07:57.871Z,11.07
2024-01-24T02:08:08.083Z,11.05
2024-01-24T02:08:18.326Z,11.07
2024-01-24T02:08:28.577Z,11.04
2024-01-24T02:08:38.845Z,11.08
2024-01-24T02:08:49.075Z,11.05
2024-01-24T02:08:59.328Z,11.05
2024-01-24T02:09:09.565Z,11.05
2024-01-24T02:09:19.846Z,11.05
2024-01-24T02:09:30.119Z,11.07
2024-01-24T02:09:40.343Z,11.08
2024-01-24T02:09:50.670Z,11.07
2024-01-24T02:10:00.954Z,11.05
2024-01-24T02:10:11.201Z,11.07
2024-01-24T02:10:21.469Z,11.07
2024-01-24T02:10:31.711Z,11.07
2024-01-24T02:10:41.959Z,11.07
2024-01-24T02:10:52.205Z,11.07
2024-01-24T02:11:02.469Z,11.07
2024-01-24T02:11:12.721Z,11.10
2024-01-24T02:11:22.946Z,11.08
2024-01-24T02:11:33.196Z,11.05
2024-01-24T02:11:43.472Z,11.08
2024-01-24T02:11:53.690Z,11.07
2024-01-24T02:12:03.930Z,11.08
2024-01-24T02:12:14.207Z,11.08
2024-01-24T02:12:24.449Z,11.07
2024-01-24T02:12:34.693Z,11.07
2024-01-24T02:12:45.118Z,11.10
2024-01-24T02:12:55.468Z,11.07
2024-01-24T02:13:05.724Z,11.08
2024-01-24T02:13:15.971Z,11.12
2024-01-24T02:13:26.226Z,11.10
2024-01-24T02:13:36.465Z,11.08
2024-01-24T02:13:46.722Z,11.12